sensor_id;sensor_type;location;lat;lon;timestamp;P1;durP1;ratioP1;P2;durP2;ratioP2
20230;SDS011;10274;49.022;9.338;2024-02-21T00:00:06;3.63;;;2.03;;
20230;SDS011;10274;49.022;9.338;2024-02-21T00:02:33;3.27;;;2.10;;
20230;SDS011;10274;49.022;9.338;2024-02-21T00:05:00;4.57;;;1.73;;
20230;SDS011;10274;49.022;9.338;2024-02-21T00:07:27;1.77;;;1.67;;
20230;SDS011;10274;49.022;9.338;2024-02-21T00:09:55;2.53;;;1.80;;
20230;SDS011;10274;49.022;9.338;2024-02-21T00:12:22;3.47;;;1.67;;
20230;SDS011;10274;49.022;9.338;2024-02-21T00:14:49;1.97;;;1.77;;
20230;SDS011;10274;49.022;9.338;2024-02-21T00:17:16;1.50;;;1.40;;
20230;SDS011;10274;49.022;9.338;2024-02-21T00:19:42;1.63;;;1.53;;
20230;SDS011;10274;49.022;9.338;2024-02-21T00:22:09;1.27;;;1.17;;
20230;SDS011;10274;49.022;9.338;2024-02-21T00:24:36;2.03;;;1.50;;
20230;SDS011;10274;49.022;9.338;2024-02-21T00:27:05;1.37;;;1.17;;
20230;SDS011;10274;49.022;9.338;2024-02-21T00:29:31;2.40;;;2.20;;
20230;SDS011;10274;49.022;9.338;2024-02-21T00:31:59;5.40;;;2.83;;
20230;SDS011;10274;49.022;9.338;2024-02-21T00:34:26;2.93;;;2.47;;
20230;SDS011;10274;49.022;9.338;2024-02-21T00:36:52;2.37;;;1.90;;
20230;SDS011;10274;49.022;9.338;2024-02-21T00:39:19;1.83;;;1.73;;
20230;SDS011;10274;49.022;9.338;2024-02-21T00:41:46;2.37;;;1.27;;
20230;SDS011;10274;49.022;9.338;2024-02-21T00:44:14;1.40;;;1.30;;
20230;SDS011;10274;49.022;9.338;2024-02-21T00:46:41;1.97;;;1.70;;
20230;SDS011;10274;49.022;9.338;2024-02-21T00:49:08;2.30;;;1.90;;
20230;SDS011;10274;49.022;9.338;2024-02-21T00:51:34;3.43;;;1.83;;
20230;SDS011;10274;49.022;9.338;2024-02-21T00:54:01;2.80;;;2.30;;
20230;SDS011;10274;49.022;9.338;2024-02-21T00:56:28;2.13;;;1.93;;
20230;SDS011;10274;49.022;9.338;2024-02-21T00:58:56;4.80;;;2.17;;
20230;SDS011;10274;49.022;9.338;2024-02-21T01:01:24;3.77;;;2.40;;
20230;SDS011;10274;49.022;9.338;2024-02-21T01:03:51;1.73;;;1.63;;
20230;SDS011;10274;49.022;9.338;2024-02-21T01:06:18;2.63;;;1.10;;
20230;SDS011;10274;49.022;9.338;2024-02-21T01:08:45;3.50;;;2.03;;
20230;SDS011;10274;49.022;9.338;2024-02-21T01:11:12;2.80;;;1.77;;
20230;SDS011;10274;49.022;9.338;2024-02-21T01:13:39;2.53;;;1.60;;
20230;SDS011;10274;49.022;9.338;2024-02-21T01:16:06;2.50;;;1.93;;
20230;SDS011;10274;49.022;9.338;2024-02-21T01:18:34;2.23;;;1.60;;
20230;SDS011;10274;49.022;9.338;2024-02-21T01:21:00;3.10;;;1.60;;
20230;SDS011;10274;49.022;9.338;2024-02-21T01:23:27;2.97;;;2.17;;
20230;SDS011;10274;49.022;9.338;2024-02-21T01:25:54;3.00;;;1.80;;
20230;SDS011;10274;49.022;9.338;2024-02-21T01:28:21;1.90;;;1.60;;
20230;SDS011;10274;49.022;9.338;2024-02-21T01:30:47;1.10;;;1.00;;
20230;SDS011;10274;49.022;9.338;2024-02-21T01:33:14;0.93;;;0.93;;
20230;SDS011;10274;49.022;9.338;2024-02-21T01:35:42;1.53;;;1.43;;
20230;SDS011;10274;49.022;9.338;2024-02-21T01:38:09;1.20;;;1.10;;
20230;SDS011;10274;49.022;9.338;2024-02-21T01:40:36;0.87;;;0.70;;
20230;SDS011;10274;49.022;9.338;2024-02-21T01:43:03;1.00;;;1.00;;
20230;SDS011;10274;49.022;9.338;2024-02-21T01:45:30;1.10;;;0.77;;
20230;SDS011;10274;49.022;9.338;2024-02-21T01:47:57;0.50;;;0.50;;
20230;SDS011;10274;49.022;9.338;2024-02-21T01:50:24;1.73;;;1.00;;
20230;SDS011;10274;49.022;9.338;2024-02-21T01:52:52;1.20;;;0.90;;
20230;SDS011;10274;49.022;9.338;2024-02-21T01:55:20;1.00;;;0.70;;
20230;SDS011;10274;49.022;9.338;2024-02-21T01:57:47;0.77;;;0.70;;
20230;SDS011;10274;49.022;9.338;2024-02-21T02:00:14;0.93;;;0.70;;
20230;SDS011;10274;49.022;9.338;2024-02-21T02:02:42;2.43;;;1.07;;
20230;SDS011;10274;49.022;9.338;2024-02-21T02:05:09;1.80;;;1.03;;
20230;SDS011;10274;49.022;9.338;2024-02-21T02:07:37;0.47;;;0.47;;
20230;SDS011;10274;49.022;9.338;2024-02-21T02:10:06;1.47;;;0.97;;
20230;SDS011;10274;49.022;9.338;2024-02-21T02:12:35;1.47;;;0.60;;
20230;SDS011;10274;49.022;9.338;2024-02-21T02:15:02;2.10;;;1.07;;
20230;SDS011;10274;49.022;9.338;2024-02-21T02:17:30;2.47;;;1.20;;
20230;SDS011;10274;49.022;9.338;2024-02-21T02:19:57;1.10;;;0.80;;
20230;SDS011;10274;49.022;9.338;2024-02-21T02:22:25;1.03;;;0.90;;
20230;SDS011;10274;49.022;9.338;2024-02-21T02:24:56;2.33;;;1.03;;
20230;SDS011;10274;49.022;9.338;2024-02-21T02:27:23;0.60;;;0.60;;
20230;SDS011;10274;49.022;9.338;2024-02-21T02:29:49;0.77;;;0.77;;
20230;SDS011;10274;49.022;9.338;2024-02-21T02:32:17;0.70;;;0.70;;
20230;SDS011;10274;49.022;9.338;2024-02-21T02:34:44;0.50;;;0.50;;
20230;SDS011;10274;49.022;9.338;2024-02-21T02:37:10;1.17;;;0.67;;
20230;SDS011;10274;49.022;9.338;2024-02-21T02:39:37;0.83;;;0.63;;
20230;SDS011;10274;49.022;9.338;2024-02-21T02:42:05;0.60;;;0.60;;
20230;SDS011;10274;49.022;9.338;2024-02-21T02:44:32;0.40;;;0.40;;
20230;SDS011;10274;49.022;9.338;2024-02-21T02:46:59;0.83;;;0.47;;
20230;SDS011;10274;49.022;9.338;2024-02-21T02:49:25;0.50;;;0.50;;
20230;SDS011;10274;49.022;9.338;2024-02-21T02:51:52;2.03;;;0.80;;
20230;SDS011;10274;49.022;9.338;2024-02-21T02:54:19;1.10;;;0.80;;
20230;SDS011;10274;49.022;9.338;2024-02-21T02:56:45;1.00;;;0.93;;
20230;SDS011;10274;49.022;9.338;2024-02-21T02:59:14;0.77;;;0.77;;
20230;SDS011;10274;49.022;9.338;2024-02-21T03:01:40;0.77;;;0.77;;
20230;SDS011;10274;49.022;9.338;2024-02-21T03:04:07;1.17;;;0.93;;
20230;SDS011;10274;49.022;9.338;2024-02-21T03:06:34;0.80;;;0.80;;
20230;SDS011;10274;49.022;9.338;2024-02-21T03:09:01;0.87;;;0.87;;
20230;SDS011;10274;49.022;9.338;2024-02-21T03:11:33;4.67;;;1.00;;
20230;SDS011;10274;49.022;9.338;2024-02-21T03:14:00;1.20;;;1.10;;
20230;SDS011;10274;49.022;9.338;2024-02-21T03:16:28;0.47;;;0.47;;
20230;SDS011;10274;49.022;9.338;2024-02-21T03:18:54;2.33;;;0.90;;
20230;SDS011;10274;49.022;9.338;2024-02-21T03:21:21;0.80;;;0.70;;
20230;SDS011;10274;49.022;9.338;2024-02-21T03:23:48;0.80;;;0.80;;
20230;SDS011;10274;49.022;9.338;2024-02-21T03:26:15;0.90;;;0.90;;
20230;SDS011;10274;49.022;9.338;2024-02-21T03:28:42;0.87;;;0.60;;
20230;SDS011;10274;49.022;9.338;2024-02-21T03:31:10;1.67;;;1.23;;
20230;SDS011;10274;49.022;9.338;2024-02-21T03:33:39;0.70;;;0.70;;
20230;SDS011;10274;49.022;9.338;2024-02-21T03:36:06;1.43;;;1.30;;
20230;SDS011;10274;49.022;9.338;2024-02-21T03:38:38;0.97;;;0.70;;
20230;SDS011;10274;49.022;9.338;2024-02-21T03:41:05;2.80;;;1.07;;
20230;SDS011;10274;49.022;9.338;2024-02-21T03:43:32;1.97;;;0.70;;
20230;SDS011;10274;49.022;9.338;2024-02-21T03:45:58;0.60;;;0.60;;
20230;SDS011;10274;49.022;9.338;2024-02-21T03:48:26;0.87;;;0.87;;
20230;SDS011;10274;49.022;9.338;2024-02-21T03:50:54;0.40;;;0.40;;
20230;SDS011;10274;49.022;9.338;2024-02-21T03:53:21;1.10;;;0.53;;
20230;SDS011;10274;49.022;9.338;2024-02-21T03:55:47;1.07;;;0.97;;
20230;SDS011;10274;49.022;9.338;2024-02-21T03:58:14;1.23;;;1.10;;
20230;SDS011;10274;49.022;9.338;2024-02-21T04:00:41;3.27;;;1.80;;
20230;SDS011;10274;49.022;9.338;2024-02-21T04:03:08;1.20;;;1.13;;
20230;SDS011;10274;49.022;9.338;2024-02-21T04:05:34;0.57;;;0.57;;
20230;SDS011;10274;49.022;9.338;2024-02-21T04:08:04;0.90;;;0.90;;
20230;SDS011;10274;49.022;9.338;2024-02-21T04:10:31;0.60;;;0.57;;
20230;SDS011;10274;49.022;9.338;2024-02-21T04:12:58;1.43;;;1.10;;
20230;SDS011;10274;49.022;9.338;2024-02-21T04:15:25;1.33;;;1.23;;
20230;SDS011;10274;49.022;9.338;2024-02-21T04:17:52;2.73;;;1.00;;
20230;SDS011;10274;49.022;9.338;2024-02-21T04:20:18;0.70;;;0.70;;
20230;SDS011;10274;49.022;9.338;2024-02-21T04:22:45;1.00;;;0.90;;
20230;SDS011;10274;49.022;9.338;2024-02-21T04:25:13;2.37;;;1.10;;
20230;SDS011;10274;49.022;9.338;2024-02-21T04:27:40;0.70;;;0.70;;
20230;SDS011;10274;49.022;9.338;2024-02-21T04:30:07;1.40;;;0.80;;
20230;SDS011;10274;49.022;9.338;2024-02-21T04:32:35;2.57;;;0.90;;
20230;SDS011;10274;49.022;9.338;2024-02-21T04:35:02;0.80;;;0.80;;
20230;SDS011;10274;49.022;9.338;2024-02-21T04:37:28;0.43;;;0.43;;
20230;SDS011;10274;49.022;9.338;2024-02-21T04:39:55;0.70;;;0.70;;
20230;SDS011;10274;49.022;9.338;2024-02-21T04:42:23;1.37;;;0.80;;
20230;SDS011;10274;49.022;9.338;2024-02-21T04:44:50;1.57;;;1.13;;
20230;SDS011;10274;49.022;9.338;2024-02-21T04:47:17;3.03;;;1.10;;
20230;SDS011;10274;49.022;9.338;2024-02-21T04:49:44;1.10;;;1.03;;
20230;SDS011;10274;49.022;9.338;2024-02-21T04:52:11;0.80;;;0.70;;
20230;SDS011;10274;49.022;9.338;2024-02-21T04:54:38;1.67;;;0.70;;
20230;SDS011;10274;49.022;9.338;2024-02-21T04:57:05;0.87;;;0.60;;
20230;SDS011;10274;49.022;9.338;2024-02-21T04:59:33;0.77;;;0.67;;
20230;SDS011;10274;49.022;9.338;2024-02-21T05:02:01;2.63;;;1.20;;
20230;SDS011;10274;49.022;9.338;2024-02-21T05:04:27;1.13;;;0.87;;
20230;SDS011;10274;49.022;9.338;2024-02-21T05:06:54;1.33;;;1.23;;
20230;SDS011;10274;49.022;9.338;2024-02-21T05:09:21;2.17;;;1.27;;
20230;SDS011;10274;49.022;9.338;2024-02-21T05:11:47;0.70;;;0.70;;
20230;SDS011;10274;49.022;9.338;2024-02-21T05:14:14;1.00;;;1.00;;
20230;SDS011;10274;49.022;9.338;2024-02-21T05:16:42;0.67;;;0.67;;
20230;SDS011;10274;49.022;9.338;2024-02-21T05:19:09;0.73;;;0.73;;
20230;SDS011;10274;49.022;9.338;2024-02-21T05:21:36;5.17;;;3.23;;
20230;SDS011;10274;49.022;9.338;2024-02-21T05:24:02;4.90;;;2.73;;
20230;SDS011;10274;49.022;9.338;2024-02-21T05:26:30;2.23;;;1.73;;
20230;SDS011;10274;49.022;9.338;2024-02-21T05:28:56;1.97;;;1.57;;
20230;SDS011;10274;49.022;9.338;2024-02-21T05:31:24;2.13;;;0.87;;
20230;SDS011;10274;49.022;9.338;2024-02-21T05:33:52;1.80;;;1.03;;
20230;SDS011;10274;49.022;9.338;2024-02-21T05:36:19;1.03;;;0.93;;
20230;SDS011;10274;49.022;9.338;2024-02-21T05:38:45;1.27;;;1.17;;
20230;SDS011;10274;49.022;9.338;2024-02-21T05:41:12;1.10;;;1.00;;
20230;SDS011;10274;49.022;9.338;2024-02-21T05:43:40;0.90;;;0.90;;
20230;SDS011;10274;49.022;9.338;2024-02-21T05:46:06;1.93;;;1.10;;
20230;SDS011;10274;49.022;9.338;2024-02-21T05:48:33;1.20;;;1.10;;
20230;SDS011;10274;49.022;9.338;2024-02-21T05:51:02;1.30;;;1.10;;
20230;SDS011;10274;49.022;9.338;2024-02-21T05:53:29;1.80;;;0.80;;
20230;SDS011;10274;49.022;9.338;2024-02-21T05:55:56;0.80;;;0.80;;
20230;SDS011;10274;49.022;9.338;2024-02-21T05:58:23;0.50;;;0.50;;
20230;SDS011;10274;49.022;9.338;2024-02-21T06:00:49;0.93;;;0.63;;
20230;SDS011;10274;49.022;9.338;2024-02-21T06:03:16;1.13;;;0.90;;
20230;SDS011;10274;49.022;9.338;2024-02-21T06:05:43;1.30;;;1.20;;
20230;SDS011;10274;49.022;9.338;2024-02-21T06:08:11;0.63;;;0.63;;
20230;SDS011;10274;49.022;9.338;2024-02-21T06:10:37;0.87;;;0.80;;
20230;SDS011;10274;49.022;9.338;2024-02-21T06:13:04;4.93;;;1.80;;
20230;SDS011;10274;49.022;9.338;2024-02-21T06:15:31;3.07;;;2.27;;
20230;SDS011;10274;49.022;9.338;2024-02-21T06:17:58;1.30;;;1.20;;
20230;SDS011;10274;49.022;9.338;2024-02-21T06:20:24;1.10;;;0.90;;
20230;SDS011;10274;49.022;9.338;2024-02-21T06:22:51;1.03;;;0.77;;
20230;SDS011;10274;49.022;9.338;2024-02-21T06:25:19;3.13;;;2.50;;
20230;SDS011;10274;49.022;9.338;2024-02-21T06:27:46;2.73;;;2.20;;
20230;SDS011;10274;49.022;9.338;2024-02-21T06:30:13;1.30;;;1.20;;
20230;SDS011;10274;49.022;9.338;2024-02-21T06:32:40;0.60;;;0.60;;
20230;SDS011;10274;49.022;9.338;2024-02-21T06:35:06;0.97;;;0.87;;
20230;SDS011;10274;49.022;9.338;2024-02-21T06:37:33;0.70;;;0.70;;
20230;SDS011;10274;49.022;9.338;2024-02-21T06:40:00;2.23;;;1.00;;
20230;SDS011;10274;49.022;9.338;2024-02-21T06:42:28;0.60;;;0.60;;
20230;SDS011;10274;49.022;9.338;2024-02-21T06:44:55;3.90;;;1.07;;
20230;SDS011;10274;49.022;9.338;2024-02-21T06:47:22;3.07;;;2.50;;
20230;SDS011;10274;49.022;9.338;2024-02-21T06:49:49;5.33;;;2.70;;
20230;SDS011;10274;49.022;9.338;2024-02-21T06:52:17;3.80;;;2.40;;
20230;SDS011;10274;49.022;9.338;2024-02-21T06:54:45;1.37;;;1.27;;
20230;SDS011;10274;49.022;9.338;2024-02-21T06:57:12;0.83;;;0.73;;
20230;SDS011;10274;49.022;9.338;2024-02-21T06:59:40;1.03;;;0.97;;
20230;SDS011;10274;49.022;9.338;2024-02-21T07:02:06;0.70;;;0.70;;
20230;SDS011;10274;49.022;9.338;2024-02-21T07:04:33;1.07;;;0.97;;
20230;SDS011;10274;49.022;9.338;2024-02-21T07:07:00;3.70;;;1.13;;
20230;SDS011;10274;49.022;9.338;2024-02-21T07:09:27;0.80;;;0.80;;
20230;SDS011;10274;49.022;9.338;2024-02-21T07:11:56;2.30;;;0.90;;
20230;SDS011;10274;49.022;9.338;2024-02-21T07:14:24;1.03;;;0.93;;
20230;SDS011;10274;49.022;9.338;2024-02-21T07:16:52;3.17;;;2.13;;
20230;SDS011;10274;49.022;9.338;2024-02-21T07:19:19;4.63;;;2.90;;
20230;SDS011;10274;49.022;9.338;2024-02-21T07:21:46;2.10;;;1.83;;
20230;SDS011;10274;49.022;9.338;2024-02-21T07:24:13;1.40;;;1.07;;
20230;SDS011;10274;49.022;9.338;2024-02-21T07:26:40;0.77;;;0.77;;
20230;SDS011;10274;49.022;9.338;2024-02-21T07:29:07;2.33;;;1.37;;
20230;SDS011;10274;49.022;9.338;2024-02-21T07:31:38;3.13;;;1.97;;
20230;SDS011;10274;49.022;9.338;2024-02-21T07:34:07;1.53;;;1.40;;
20230;SDS011;10274;49.022;9.338;2024-02-21T07:36:34;2.50;;;1.57;;
20230;SDS011;10274;49.022;9.338;2024-02-21T07:39:02;1.60;;;1.43;;
20230;SDS011;10274;49.022;9.338;2024-02-21T07:41:29;2.00;;;1.80;;
20230;SDS011;10274;49.022;9.338;2024-02-21T07:43:56;2.07;;;1.80;;
20230;SDS011;10274;49.022;9.338;2024-02-21T07:46:22;1.80;;;1.47;;
20230;SDS011;10274;49.022;9.338;2024-02-21T07:48:50;2.27;;;1.97;;
20230;SDS011;10274;49.022;9.338;2024-02-21T07:51:18;1.87;;;1.67;;
20230;SDS011;10274;49.022;9.338;2024-02-21T07:53:45;6.00;;;2.23;;
20230;SDS011;10274;49.022;9.338;2024-02-21T07:56:12;1.00;;;0.77;;
20230;SDS011;10274;49.022;9.338;2024-02-21T07:58:40;1.03;;;0.80;;
20230;SDS011;10274;49.022;9.338;2024-02-21T08:01:06;0.90;;;0.90;;
20230;SDS011;10274;49.022;9.338;2024-02-21T08:03:33;0.77;;;0.63;;
20230;SDS011;10274;49.022;9.338;2024-02-21T08:06:00;2.07;;;1.17;;
20230;SDS011;10274;49.022;9.338;2024-02-21T08:08:28;0.77;;;0.70;;
20230;SDS011;10274;49.022;9.338;2024-02-21T08:10:55;0.97;;;0.60;;
20230;SDS011;10274;49.022;9.338;2024-02-21T08:13:21;0.50;;;0.50;;
20230;SDS011;10274;49.022;9.338;2024-02-21T08:15:48;0.77;;;0.50;;
20230;SDS011;10274;49.022;9.338;2024-02-21T08:18:15;0.83;;;0.83;;
20230;SDS011;10274;49.022;9.338;2024-02-21T08:20:42;0.53;;;0.50;;
20230;SDS011;10274;49.022;9.338;2024-02-21T08:23:08;2.23;;;1.70;;
20230;SDS011;10274;49.022;9.338;2024-02-21T08:25:36;0.50;;;0.50;;
20230;SDS011;10274;49.022;9.338;2024-02-21T08:28:04;0.57;;;0.57;;
20230;SDS011;10274;49.022;9.338;2024-02-21T08:30:31;0.63;;;0.63;;
20230;SDS011;10274;49.022;9.338;2024-02-21T08:32:58;0.50;;;0.50;;
20230;SDS011;10274;49.022;9.338;2024-02-21T08:35:25;3.07;;;0.60;;
20230;SDS011;10274;49.022;9.338;2024-02-21T08:37:51;0.60;;;0.60;;
20230;SDS011;10274;49.022;9.338;2024-02-21T08:40:18;0.30;;;0.30;;
20230;SDS011;10274;49.022;9.338;2024-02-21T08:42:47;0.50;;;0.50;;
20230;SDS011;10274;49.022;9.338;2024-02-21T08:45:14;0.83;;;0.83;;
20230;SDS011;10274;49.022;9.338;2024-02-21T08:47:41;0.53;;;0.13;;
20230;SDS011;10274;49.022;9.338;2024-02-21T08:50:08;0.40;;;0.40;;
20230;SDS011;10274;49.022;9.338;2024-02-21T08:52:35;0.63;;;0.50;;
20230;SDS011;10274;49.022;9.338;2024-02-21T08:55:02;0.37;;;0.37;;
20230;SDS011;10274;49.022;9.338;2024-02-21T08:57:29;0.90;;;0.90;;
20230;SDS011;10274;49.022;9.338;2024-02-21T09:00:02;0.40;;;0.40;;
20230;SDS011;10274;49.022;9.338;2024-02-21T09:02:34;0.23;;;0.23;;
20230;SDS011;10274;49.022;9.338;2024-02-21T09:05:01;0.80;;;0.70;;
20230;SDS011;10274;49.022;9.338;2024-02-21T09:07:30;0.60;;;0.60;;
20230;SDS011;10274;49.022;9.338;2024-02-21T09:09:56;0.40;;;0.40;;
20230;SDS011;10274;49.022;9.338;2024-02-21T09:12:23;0.60;;;0.60;;
20230;SDS011;10274;49.022;9.338;2024-02-21T09:14:50;0.47;;;0.47;;
20230;SDS011;10274;49.022;9.338;2024-02-21T09:17:18;0.27;;;0.27;;
20230;SDS011;10274;49.022;9.338;2024-02-21T09:19:45;0.77;;;0.60;;
20230;SDS011;10274;49.022;9.338;2024-02-21T09:22:12;0.37;;;0.37;;
20230;SDS011;10274;49.022;9.338;2024-02-21T09:24:39;1.07;;;0.47;;
20230;SDS011;10274;49.022;9.338;2024-02-21T09:27:06;0.60;;;0.20;;
20230;SDS011;10274;49.022;9.338;2024-02-21T09:29:32;0.90;;;0.90;;
20230;SDS011;10274;49.022;9.338;2024-02-21T09:31:59;0.47;;;0.47;;
20230;SDS011;10274;49.022;9.338;2024-02-21T09:34:27;0.37;;;0.37;;
20230;SDS011;10274;49.022;9.338;2024-02-21T09:36:54;1.43;;;0.60;;
20230;SDS011;10274;49.022;9.338;2024-02-21T09:39:20;1.53;;;0.73;;
20230;SDS011;10274;49.022;9.338;2024-02-21T09:41:48;0.60;;;0.40;;
20230;SDS011;10274;49.022;9.338;2024-02-21T09:44:20;0.27;;;0.27;;
20230;SDS011;10274;49.022;9.338;2024-02-21T09:46:50;0.50;;;0.50;;
20230;SDS011;10274;49.022;9.338;2024-02-21T09:49:25;1.10;;;0.37;;
20230;SDS011;10274;49.022;9.338;2024-02-21T09:51:58;0.43;;;0.43;;
20230;SDS011;10274;49.022;9.338;2024-02-21T09:54:27;0.30;;;0.30;;
20230;SDS011;10274;49.022;9.338;2024-02-21T09:56:55;2.90;;;0.77;;
20230;SDS011;10274;49.022;9.338;2024-02-21T09:59:21;0.50;;;0.50;;
20230;SDS011;10274;49.022;9.338;2024-02-21T10:01:49;0.17;;;0.17;;
20230;SDS011;10274;49.022;9.338;2024-02-21T10:04:16;0.20;;;0.10;;
20230;SDS011;10274;49.022;9.338;2024-02-21T10:06:45;0.53;;;0.53;;
20230;SDS011;10274;49.022;9.338;2024-02-21T10:09:19;0.13;;;0.10;;
20230;SDS011;10274;49.022;9.338;2024-02-21T10:11:47;1.23;;;0.97;;
20230;SDS011;10274;49.022;9.338;2024-02-21T10:14:14;0.47;;;0.47;;
20230;SDS011;10274;49.022;9.338;2024-02-21T10:16:42;1.13;;;1.00;;
20230;SDS011;10274;49.022;9.338;2024-02-21T10:19:15;0.13;;;0.13;;
20230;SDS011;10274;49.022;9.338;2024-02-21T10:21:43;0.87;;;0.77;;
20230;SDS011;10274;49.022;9.338;2024-02-21T10:24:11;0.30;;;0.30;;
20230;SDS011;10274;49.022;9.338;2024-02-21T10:26:38;0.73;;;0.30;;
20230;SDS011;10274;49.022;9.338;2024-02-21T10:29:05;0.10;;;0.10;;
20230;SDS011;10274;49.022;9.338;2024-02-21T10:31:31;0.23;;;0.23;;
20230;SDS011;10274;49.022;9.338;2024-02-21T10:33:59;0.43;;;0.43;;
20230;SDS011;10274;49.022;9.338;2024-02-21T10:36:28;0.20;;;0.10;;
20230;SDS011;10274;49.022;9.338;2024-02-21T10:38:55;0.60;;;0.60;;
20230;SDS011;10274;49.022;9.338;2024-02-21T10:41:23;0.10;;;0.10;;
20230;SDS011;10274;49.022;9.338;2024-02-21T10:43:52;0.17;;;0.17;;
20230;SDS011;10274;49.022;9.338;2024-02-21T10:46:21;0.73;;;0.37;;
20230;SDS011;10274;49.022;9.338;2024-02-21T10:48:52;2.13;;;0.80;;
20230;SDS011;10274;49.022;9.338;2024-02-21T10:51:28;0.23;;;0.23;;
20230;SDS011;10274;49.022;9.338;2024-02-21T10:54:02;0.10;;;0.10;;
20230;SDS011;10274;49.022;9.338;2024-02-21T10:56:39;0.43;;;0.40;;
20230;SDS011;10274;49.022;9.338;2024-02-21T10:59:07;0.20;;;0.20;;
20230;SDS011;10274;49.022;9.338;2024-02-21T11:01:34;0.30;;;0.30;;
20230;SDS011;10274;49.022;9.338;2024-02-21T11:04:02;1.20;;;0.43;;
20230;SDS011;10274;49.022;9.338;2024-02-21T11:06:30;0.33;;;0.33;;
20230;SDS011;10274;49.022;9.338;2024-02-21T11:08:59;0.30;;;0.30;;
20230;SDS011;10274;49.022;9.338;2024-02-21T11:11:29;0.17;;;0.17;;
20230;SDS011;10274;49.022;9.338;2024-02-21T11:14:07;0.03;;;0.03;;
20230;SDS011;10274;49.022;9.338;2024-02-21T11:16:35;0.77;;;0.77;;
20230;SDS011;10274;49.022;9.338;2024-02-21T11:19:04;0.20;;;0.20;;
20230;SDS011;10274;49.022;9.338;2024-02-21T11:21:32;0.17;;;0.17;;
20230;SDS011;10274;49.022;9.338;2024-02-21T11:24:00;0.53;;;0.53;;
20230;SDS011;10274;49.022;9.338;2024-02-21T11:26:27;0.33;;;0.20;;
20230;SDS011;10274;49.022;9.338;2024-02-21T11:28:56;0.00;;;0.00;;
20230;SDS011;10274;49.022;9.338;2024-02-21T11:31:25;0.20;;;0.20;;
20230;SDS011;10274;49.022;9.338;2024-02-21T11:33:53;0.67;;;0.67;;
20230;SDS011;10274;49.022;9.338;2024-02-21T11:36:26;0.30;;;0.30;;
20230;SDS011;10274;49.022;9.338;2024-02-21T11:38:53;0.87;;;0.73;;
20230;SDS011;10274;49.022;9.338;2024-02-21T11:41:20;1.60;;;0.37;;
20230;SDS011;10274;49.022;9.338;2024-02-21T11:43:48;0.17;;;0.17;;
20230;SDS011;10274;49.022;9.338;2024-02-21T11:46:14;0.83;;;0.23;;
20230;SDS011;10274;49.022;9.338;2024-02-21T11:48:42;0.40;;;0.13;;
20230;SDS011;10274;49.022;9.338;2024-02-21T11:51:19;0.10;;;0.10;;
20230;SDS011;10274;49.022;9.338;2024-02-21T11:53:47;0.53;;;0.40;;
20230;SDS011;10274;49.022;9.338;2024-02-21T11:56:14;0.10;;;0.10;;
20230;SDS011;10274;49.022;9.338;2024-02-21T11:58:40;0.30;;;0.30;;
20230;SDS011;10274;49.022;9.338;2024-02-21T12:01:07;0.13;;;0.13;;
20230;SDS011;10274;49.022;9.338;2024-02-21T12:03:34;0.00;;;0.00;;
20230;SDS011;10274;49.022;9.338;2024-02-21T12:06:03;0.10;;;0.10;;
20230;SDS011;10274;49.022;9.338;2024-02-21T12:08:40;2.27;;;0.30;;
20230;SDS011;10274;49.022;9.338;2024-02-21T12:11:15;0.00;;;0.00;;
20230;SDS011;10274;49.022;9.338;2024-02-21T12:13:43;0.10;;;0.10;;
20230;SDS011;10274;49.022;9.338;2024-02-21T12:16:09;0.53;;;0.33;;
20230;SDS011;10274;49.022;9.338;2024-02-21T12:18:36;0.17;;;0.17;;
20230;SDS011;10274;49.022;9.338;2024-02-21T12:21:06;0.23;;;0.23;;
20230;SDS011;10274;49.022;9.338;2024-02-21T12:23:33;0.60;;;0.40;;
20230;SDS011;10274;49.022;9.338;2024-02-21T12:26:00;0.30;;;0.20;;
20230;SDS011;10274;49.022;9.338;2024-02-21T12:28:27;1.53;;;0.40;;
20230;SDS011;10274;49.022;9.338;2024-02-21T12:30:53;0.93;;;0.73;;
20230;SDS011;10274;49.022;9.338;2024-02-21T12:33:20;0.17;;;0.17;;
20230;SDS011;10274;49.022;9.338;2024-02-21T12:35:47;0.20;;;0.10;;
20230;SDS011;10274;49.022;9.338;2024-02-21T12:38:15;0.50;;;0.50;;
20230;SDS011;10274;49.022;9.338;2024-02-21T12:40:43;0.47;;;0.40;;
20230;SDS011;10274;49.022;9.338;2024-02-21T12:43:09;0.73;;;0.47;;
20230;SDS011;10274;49.022;9.338;2024-02-21T12:45:36;0.50;;;0.30;;
20230;SDS011;10274;49.022;9.338;2024-02-21T12:48:03;0.30;;;0.30;;
20230;SDS011;10274;49.022;9.338;2024-02-21T12:50:30;2.63;;;0.43;;
20230;SDS011;10274;49.022;9.338;2024-02-21T12:52:57;0.93;;;0.90;;
20230;SDS011;10274;49.022;9.338;2024-02-21T12:55:25;0.27;;;0.27;;
20230;SDS011;10274;49.022;9.338;2024-02-21T12:57:52;0.57;;;0.50;;
20230;SDS011;10274;49.022;9.338;2024-02-21T13:00:19;0.53;;;0.53;;
20230;SDS011;10274;49.022;9.338;2024-02-21T13:02:46;0.40;;;0.20;;
20230;SDS011;10274;49.022;9.338;2024-02-21T13:05:12;1.00;;;0.50;;
20230;SDS011;10274;49.022;9.338;2024-02-21T13:07:39;0.67;;;0.67;;
20230;SDS011;10274;49.022;9.338;2024-02-21T13:10:06;0.73;;;0.17;;
20230;SDS011;10274;49.022;9.338;2024-02-21T13:12:35;0.17;;;0.17;;
20230;SDS011;10274;49.022;9.338;2024-02-21T13:15:02;0.07;;;0.07;;
20230;SDS011;10274;49.022;9.338;2024-02-21T13:17:29;0.57;;;0.30;;
20230;SDS011;10274;49.022;9.338;2024-02-21T13:19:56;0.60;;;0.60;;
20230;SDS011;10274;49.022;9.338;2024-02-21T13:22:23;0.20;;;0.20;;
20230;SDS011;10274;49.022;9.338;2024-02-21T13:24:51;2.07;;;0.97;;
20230;SDS011;10274;49.022;9.338;2024-02-21T13:27:18;2.10;;;0.43;;
20230;SDS011;10274;49.022;9.338;2024-02-21T13:29:46;2.23;;;0.93;;
20230;SDS011;10274;49.022;9.338;2024-02-21T13:32:13;1.07;;;0.77;;
20230;SDS011;10274;49.022;9.338;2024-02-21T13:34:40;0.37;;;0.37;;
20230;SDS011;10274;49.022;9.338;2024-02-21T13:37:07;0.30;;;0.20;;
20230;SDS011;10274;49.022;9.338;2024-02-21T13:39:34;2.73;;;0.73;;
20230;SDS011;10274;49.022;9.338;2024-02-21T13:42:01;0.27;;;0.27;;
20230;SDS011;10274;49.022;9.338;2024-02-21T13:44:30;0.70;;;0.70;;
20230;SDS011;10274;49.022;9.338;2024-02-21T13:46:58;1.10;;;0.57;;
20230;SDS011;10274;49.022;9.338;2024-02-21T13:49:25;0.47;;;0.33;;
20230;SDS011;10274;49.022;9.338;2024-02-21T13:51:53;0.63;;;0.63;;
20230;SDS011;10274;49.022;9.338;2024-02-21T13:54:20;0.23;;;0.23;;
20230;SDS011;10274;49.022;9.338;2024-02-21T13:56:47;0.20;;;0.20;;
20230;SDS011;10274;49.022;9.338;2024-02-21T13:59:13;0.10;;;0.10;;
20230;SDS011;10274;49.022;9.338;2024-02-21T14:01:43;0.30;;;0.20;;
20230;SDS011;10274;49.022;9.338;2024-02-21T14:04:11;0.30;;;0.23;;
20230;SDS011;10274;49.022;9.338;2024-02-21T14:06:38;0.17;;;0.13;;
20230;SDS011;10274;49.022;9.338;2024-02-21T14:09:08;0.30;;;0.20;;
20230;SDS011;10274;49.022;9.338;2024-02-21T14:11:34;0.40;;;0.40;;
20230;SDS011;10274;49.022;9.338;2024-02-21T14:14:02;0.60;;;0.33;;
20230;SDS011;10274;49.022;9.338;2024-02-21T14:16:29;0.30;;;0.30;;
20230;SDS011;10274;49.022;9.338;2024-02-21T14:18:56;0.93;;;0.50;;
20230;SDS011;10274;49.022;9.338;2024-02-21T14:21:24;1.20;;;0.80;;
20230;SDS011;10274;49.022;9.338;2024-02-21T14:23:51;0.77;;;0.47;;
20230;SDS011;10274;49.022;9.338;2024-02-21T14:26:18;0.03;;;0.03;;
20230;SDS011;10274;49.022;9.338;2024-02-21T14:28:46;0.33;;;0.20;;
20230;SDS011;10274;49.022;9.338;2024-02-21T14:31:13;0.10;;;0.10;;
20230;SDS011;10274;49.022;9.338;2024-02-21T14:33:40;0.67;;;0.57;;
20230;SDS011;10274;49.022;9.338;2024-02-21T14:36:07;0.30;;;0.20;;
20230;SDS011;10274;49.022;9.338;2024-02-21T14:38:35;1.30;;;0.20;;
20230;SDS011;10274;49.022;9.338;2024-02-21T14:41:02;0.23;;;0.23;;
20230;SDS011;10274;49.022;9.338;2024-02-21T14:43:28;1.90;;;0.53;;
20230;SDS011;10274;49.022;9.338;2024-02-21T14:45:55;0.23;;;0.23;;
20230;SDS011;10274;49.022;9.338;2024-02-21T14:48:22;0.10;;;0.10;;